sensor_id;sensor_type;location;lat;lon;timestamp;P1;durP1;ratioP1;P2;durP2;ratioP2
23290;SDS011;11814;44.686;10.842;2023-10-31T00:01:33;4.50;;;0.98;;
23290;SDS011;11814;44.686;10.842;2023-10-31T00:03:59;5.68;;;1.25;;
23290;SDS011;11814;44.686;10.842;2023-10-31T00:06:30;4.50;;;1.10;;
23290;SDS011;11814;44.686;10.842;2023-10-31T00:08:56;5.63;;;0.95;;
23290;SDS011;11814;44.686;10.842;2023-10-31T00:11:25;4.57;;;0.70;;
23290;SDS011;11814;44.686;10.842;2023-10-31T00:13:50;5.47;;;1.02;;
23290;SDS011;11814;44.686;10.842;2023-10-31T00:16:22;6.70;;;1.52;;
23290;SDS011;11814;44.686;10.842;2023-10-31T00:18:48;4.03;;;1.02;;
23290;SDS011;11814;44.686;10.842;2023-10-31T00:21:18;4.13;;;1.15;;
23290;SDS011;11814;44.686;10.842;2023-10-31T00:23:49;5.30;;;1.30;;
23290;SDS011;11814;44.686;10.842;2023-10-31T00:26:18;2.22;;;0.88;;
23290;SDS011;11814;44.686;10.842;2023-10-31T00:28:46;4.88;;;1.10;;
23290;SDS011;11814;44.686;10.842;2023-10-31T00:31:12;4.55;;;1.10;;
23290;SDS011;11814;44.686;10.842;2023-10-31T00:33:53;3.67;;;1.05;;
23290;SDS011;11814;44.686;10.842;2023-10-31T00:36:26;7.00;;;1.08;;
23290;SDS011;11814;44.686;10.842;2023-10-31T00:39:06;3.47;;;0.88;;
23290;SDS011;11814;44.686;10.842;2023-10-31T00:41:32;4.38;;;0.80;;
23290;SDS011;11814;44.686;10.842;2023-10-31T00:43:57;2.67;;;0.90;;
23290;SDS011;11814;44.686;10.842;2023-10-31T00:46:26;3.88;;;0.80;;
23290;SDS011;11814;44.686;10.842;2023-10-31T00:48:55;5.15;;;0.85;;
23290;SDS011;11814;44.686;10.842;2023-10-31T00:51:20;3.65;;;0.82;;
23290;SDS011;11814;44.686;10.842;2023-10-31T00:53:49;6.35;;;1.02;;
23290;SDS011;11814;44.686;10.842;2023-10-31T00:56:20;6.53;;;1.05;;
23290;SDS011;11814;44.686;10.842;2023-10-31T00:58:49;3.90;;;1.00;;
23290;SDS011;11814;44.686;10.842;2023-10-31T01:01:17;6.07;;;1.20;;
23290;SDS011;11814;44.686;10.842;2023-10-31T01:03:48;5.15;;;0.80;;
23290;SDS011;11814;44.686;10.842;2023-10-31T01:06:17;4.63;;;0.70;;
23290;SDS011;11814;44.686;10.842;2023-10-31T01:08:45;6.15;;;1.13;;
23290;SDS011;11814;44.686;10.842;2023-10-31T01:11:20;4.22;;;0.93;;
23290;SDS011;11814;44.686;10.842;2023-10-31T01:13:48;3.05;;;0.90;;
23290;SDS011;11814;44.686;10.842;2023-10-31T01:16:17;6.90;;;1.20;;
23290;SDS011;11814;44.686;10.842;2023-10-31T01:19:00;5.03;;;1.00;;
23290;SDS011;11814;44.686;10.842;2023-10-31T01:21:26;3.33;;;0.80;;
23290;SDS011;11814;44.686;10.842;2023-10-31T01:23:54;5.90;;;1.23;;
23290;SDS011;11814;44.686;10.842;2023-10-31T01:26:22;4.75;;;0.80;;
23290;SDS011;11814;44.686;10.842;2023-10-31T01:28:57;5.03;;;0.90;;
23290;SDS011;11814;44.686;10.842;2023-10-31T01:31:31;4.45;;;1.10;;
23290;SDS011;11814;44.686;10.842;2023-10-31T01:34:02;2.63;;;0.70;;
23290;SDS011;11814;44.686;10.842;2023-10-31T01:36:36;4.85;;;0.93;;
23290;SDS011;11814;44.686;10.842;2023-10-31T01:39:05;6.07;;;1.20;;
23290;SDS011;11814;44.686;10.842;2023-10-31T01:41:34;4.13;;;0.85;;
23290;SDS011;11814;44.686;10.842;2023-10-31T01:44:05;6.32;;;1.23;;
23290;SDS011;11814;44.686;10.842;2023-10-31T01:46:39;6.35;;;1.52;;
23290;SDS011;11814;44.686;10.842;2023-10-31T01:49:07;6.60;;;1.35;;
23290;SDS011;11814;44.686;10.842;2023-10-31T01:51:33;4.13;;;0.98;;
23290;SDS011;11814;44.686;10.842;2023-10-31T01:54:04;2.75;;;1.00;;
23290;SDS011;11814;44.686;10.842;2023-10-31T01:56:40;6.20;;;1.25;;
23290;SDS011;11814;44.686;10.842;2023-10-31T01:59:15;3.55;;;0.90;;
23290;SDS011;11814;44.686;10.842;2023-10-31T02:01:44;7.07;;;1.17;;
23290;SDS011;11814;44.686;10.842;2023-10-31T02:04:13;4.72;;;1.20;;
23290;SDS011;11814;44.686;10.842;2023-10-31T02:06:41;5.53;;;1.50;;
23290;SDS011;11814;44.686;10.842;2023-10-31T02:09:07;6.43;;;2.08;;
23290;SDS011;11814;44.686;10.842;2023-10-31T02:11:32;6.93;;;1.83;;
23290;SDS011;11814;44.686;10.842;2023-10-31T02:13:58;6.45;;;1.67;;
23290;SDS011;11814;44.686;10.842;2023-10-31T02:16:26;5.88;;;1.42;;
23290;SDS011;11814;44.686;10.842;2023-10-31T02:18:52;8.02;;;1.58;;
23290;SDS011;11814;44.686;10.842;2023-10-31T02:21:18;7.75;;;1.80;;
23290;SDS011;11814;44.686;10.842;2023-10-31T02:26:32;5.57;;;1.88;;
23290;SDS011;11814;44.686;10.842;2023-10-31T02:28:59;9.27;;;2.03;;
23290;SDS011;11814;44.686;10.842;2023-10-31T02:31:48;5.55;;;1.58;;
23290;SDS011;11814;44.686;10.842;2023-10-31T02:34:13;5.47;;;1.67;;
23290;SDS011;11814;44.686;10.842;2023-10-31T02:36:42;6.70;;;1.63;;
23290;SDS011;11814;44.686;10.842;2023-10-31T02:39:11;6.13;;;1.58;;
23290;SDS011;11814;44.686;10.842;2023-10-31T02:41:54;7.05;;;1.75;;
23290;SDS011;11814;44.686;10.842;2023-10-31T02:44:25;4.00;;;1.60;;
23290;SDS011;11814;44.686;10.842;2023-10-31T02:46:51;6.43;;;1.80;;
23290;SDS011;11814;44.686;10.842;2023-10-31T02:49:19;6.75;;;1.55;;
23290;SDS011;11814;44.686;10.842;2023-10-31T02:52:00;5.93;;;1.88;;
23290;SDS011;11814;44.686;10.842;2023-10-31T02:54:28;6.85;;;1.85;;
23290;SDS011;11814;44.686;10.842;2023-10-31T02:56:54;6.57;;;1.60;;
23290;SDS011;11814;44.686;10.842;2023-10-31T02:59:27;6.63;;;1.98;;
23290;SDS011;11814;44.686;10.842;2023-10-31T03:01:53;7.05;;;2.20;;
23290;SDS011;11814;44.686;10.842;2023-10-31T03:04:40;8.25;;;2.38;;
23290;SDS011;11814;44.686;10.842;2023-10-31T03:07:11;7.70;;;2.15;;
23290;SDS011;11814;44.686;10.842;2023-10-31T03:09:40;7.07;;;1.63;;
23290;SDS011;11814;44.686;10.842;2023-10-31T03:12:05;5.13;;;1.50;;
23290;SDS011;11814;44.686;10.842;2023-10-31T03:14:34;7.25;;;1.95;;
23290;SDS011;11814;44.686;10.842;2023-10-31T03:17:05;5.38;;;1.50;;
23290;SDS011;11814;44.686;10.842;2023-10-31T03:19:31;6.25;;;1.77;;
23290;SDS011;11814;44.686;10.842;2023-10-31T03:21:56;5.78;;;1.83;;
23290;SDS011;11814;44.686;10.842;2023-10-31T03:24:22;6.70;;;1.70;;
23290;SDS011;11814;44.686;10.842;2023-10-31T03:26:50;4.70;;;1.48;;
23290;SDS011;11814;44.686;10.842;2023-10-31T03:29:20;5.05;;;1.63;;
23290;SDS011;11814;44.686;10.842;2023-10-31T03:31:46;4.07;;;1.40;;
23290;SDS011;11814;44.686;10.842;2023-10-31T03:34:17;5.50;;;1.55;;
23290;SDS011;11814;44.686;10.842;2023-10-31T03:36:45;9.50;;;1.80;;
23290;SDS011;11814;44.686;10.842;2023-10-31T03:39:15;8.35;;;1.63;;
23290;SDS011;11814;44.686;10.842;2023-10-31T03:41:52;4.22;;;1.10;;
23290;SDS011;11814;44.686;10.842;2023-10-31T03:44:25;4.25;;;1.05;;
23290;SDS011;11814;44.686;10.842;2023-10-31T03:46:54;3.65;;;1.10;;
23290;SDS011;11814;44.686;10.842;2023-10-31T03:49:22;5.43;;;1.05;;
23290;SDS011;11814;44.686;10.842;2023-10-31T03:51:48;5.07;;;1.02;;
23290;SDS011;11814;44.686;10.842;2023-10-31T03:54:14;4.93;;;1.00;;
23290;SDS011;11814;44.686;10.842;2023-10-31T03:56:48;4.95;;;1.17;;
23290;SDS011;11814;44.686;10.842;2023-10-31T03:59:17;4.53;;;0.88;;
23290;SDS011;11814;44.686;10.842;2023-10-31T04:01:48;4.82;;;1.13;;
23290;SDS011;11814;44.686;10.842;2023-10-31T04:04:17;8.15;;;1.08;;
23290;SDS011;11814;44.686;10.842;2023-10-31T04:06:53;5.28;;;1.15;;
23290;SDS011;11814;44.686;10.842;2023-10-31T04:09:26;7.55;;;1.20;;
23290;SDS011;11814;44.686;10.842;2023-10-31T04:11:58;3.63;;;0.88;;
23290;SDS011;11814;44.686;10.842;2023-10-31T04:14:24;7.97;;;1.13;;
23290;SDS011;11814;44.686;10.842;2023-10-31T04:16:52;4.90;;;1.08;;
23290;SDS011;11814;44.686;10.842;2023-10-31T04:19:20;3.53;;;0.98;;
23290;SDS011;11814;44.686;10.842;2023-10-31T04:21:46;3.28;;;0.80;;
23290;SDS011;11814;44.686;10.842;2023-10-31T04:24:12;4.35;;;0.95;;
23290;SDS011;11814;44.686;10.842;2023-10-31T04:26:39;7.13;;;1.30;;
23290;SDS011;11814;44.686;10.842;2023-10-31T04:29:06;6.38;;;1.13;;
23290;SDS011;11814;44.686;10.842;2023-10-31T04:31:37;4.97;;;1.00;;
23290;SDS011;11814;44.686;10.842;2023-10-31T04:34:03;4.10;;;1.00;;
23290;SDS011;11814;44.686;10.842;2023-10-31T04:36:34;6.75;;;1.13;;
23290;SDS011;11814;44.686;10.842;2023-10-31T04:39:06;6.97;;;1.33;;
23290;SDS011;11814;44.686;10.842;2023-10-31T04:41:31;5.05;;;0.82;;
23290;SDS011;11814;44.686;10.842;2023-10-31T04:44:06;5.57;;;0.75;;
23290;SDS011;11814;44.686;10.842;2023-10-31T04:46:31;6.05;;;1.33;;
23290;SDS011;11814;44.686;10.842;2023-10-31T04:49:03;7.88;;;1.30;;
23290;SDS011;11814;44.686;10.842;2023-10-31T04:51:49;6.00;;;1.05;;
23290;SDS011;11814;44.686;10.842;2023-10-31T04:54:15;6.88;;;1.30;;
23290;SDS011;11814;44.686;10.842;2023-10-31T04:56:40;4.45;;;0.80;;
23290;SDS011;11814;44.686;10.842;2023-10-31T04:59:06;4.38;;;0.80;;
23290;SDS011;11814;44.686;10.842;2023-10-31T05:01:56;5.07;;;1.00;;
23290;SDS011;11814;44.686;10.842;2023-10-31T05:04:30;3.70;;;0.95;;
23290;SDS011;11814;44.686;10.842;2023-10-31T05:06:59;8.82;;;1.30;;
23290;SDS011;11814;44.686;10.842;2023-10-31T05:09:32;2.83;;;0.60;;
23290;SDS011;11814;44.686;10.842;2023-10-31T05:12:12;5.07;;;0.95;;
23290;SDS011;11814;44.686;10.842;2023-10-31T05:14:40;3.63;;;0.70;;
23290;SDS011;11814;44.686;10.842;2023-10-31T05:17:09;5.15;;;0.60;;
23290;SDS011;11814;44.686;10.842;2023-10-31T05:19:40;2.65;;;0.50;;
23290;SDS011;11814;44.686;10.842;2023-10-31T05:22:19;1.73;;;0.50;;
23290;SDS011;11814;44.686;10.842;2023-10-31T05:24:44;3.67;;;0.40;;
23290;SDS011;11814;44.686;10.842;2023-10-31T05:27:10;1.92;;;0.45;;
23290;SDS011;11814;44.686;10.842;2023-10-31T05:29:38;3.17;;;0.60;;
23290;SDS011;11814;44.686;10.842;2023-10-31T05:32:06;3.70;;;0.90;;
23290;SDS011;11814;44.686;10.842;2023-10-31T05:34:32;2.42;;;0.57;;
23290;SDS011;11814;44.686;10.842;2023-10-31T05:36:58;3.13;;;0.47;;
23290;SDS011;11814;44.686;10.842;2023-10-31T05:39:26;1.50;;;0.38;;
23290;SDS011;11814;44.686;10.842;2023-10-31T05:41:55;1.85;;;0.40;;
23290;SDS011;11814;44.686;10.842;2023-10-31T05:44:24;2.92;;;0.60;;
23290;SDS011;11814;44.686;10.842;2023-10-31T05:46:55;2.08;;;0.43;;
23290;SDS011;11814;44.686;10.842;2023-10-31T05:49:27;1.77;;;0.47;;
23290;SDS011;11814;44.686;10.842;2023-10-31T05:51:56;3.33;;;0.52;;
23290;SDS011;11814;44.686;10.842;2023-10-31T05:54:24;4.40;;;0.70;;
23290;SDS011;11814;44.686;10.842;2023-10-31T05:56:57;4.70;;;0.50;;
23290;SDS011;11814;44.686;10.842;2023-10-31T05:59:22;1.45;;;0.40;;
23290;SDS011;11814;44.686;10.842;2023-10-31T06:01:48;1.95;;;0.55;;
23290;SDS011;11814;44.686;10.842;2023-10-31T06:04:15;7.90;;;0.52;;
23290;SDS011;11814;44.686;10.842;2023-10-31T06:06:56;2.42;;;0.60;;
23290;SDS011;11814;44.686;10.842;2023-10-31T06:09:33;3.75;;;0.77;;
23290;SDS011;11814;44.686;10.842;2023-10-31T06:12:05;6.93;;;0.88;;
23290;SDS011;11814;44.686;10.842;2023-10-31T06:14:34;6.00;;;0.50;;
23290;SDS011;11814;44.686;10.842;2023-10-31T06:17:00;5.28;;;0.65;;
23290;SDS011;11814;44.686;10.842;2023-10-31T06:19:27;3.22;;;0.50;;
23290;SDS011;11814;44.686;10.842;2023-10-31T06:21:59;2.85;;;0.45;;
23290;SDS011;11814;44.686;10.842;2023-10-31T06:24:28;4.20;;;0.63;;
23290;SDS011;11814;44.686;10.842;2023-10-31T06:26:57;4.82;;;0.70;;
23290;SDS011;11814;44.686;10.842;2023-10-31T06:29:31;3.40;;;0.70;;
23290;SDS011;11814;44.686;10.842;2023-10-31T06:32:02;2.05;;;0.52;;
23290;SDS011;11814;44.686;10.842;2023-10-31T06:34:36;5.43;;;0.55;;
23290;SDS011;11814;44.686;10.842;2023-10-31T06:37:05;7.40;;;0.90;;
23290;SDS011;11814;44.686;10.842;2023-10-31T06:39:33;4.88;;;0.50;;
23290;SDS011;11814;44.686;10.842;2023-10-31T06:41:59;7.22;;;0.80;;
23290;SDS011;11814;44.686;10.842;2023-10-31T06:44:27;2.00;;;0.50;;
23290;SDS011;11814;44.686;10.842;2023-10-31T06:46:59;8.38;;;1.15;;
23290;SDS011;11814;44.686;10.842;2023-10-31T06:49:29;4.75;;;0.60;;
23290;SDS011;11814;44.686;10.842;2023-10-31T06:51:58;5.93;;;0.80;;
23290;SDS011;11814;44.686;10.842;2023-10-31T06:54:26;6.47;;;0.90;;
23290;SDS011;11814;44.686;10.842;2023-10-31T06:56:52;5.68;;;0.80;;
23290;SDS011;11814;44.686;10.842;2023-10-31T06:59:21;3.75;;;0.82;;
23290;SDS011;11814;44.686;10.842;2023-10-31T07:01:46;8.40;;;1.10;;
23290;SDS011;11814;44.686;10.842;2023-10-31T07:04:15;6.60;;;0.80;;
23290;SDS011;11814;44.686;10.842;2023-10-31T07:06:44;3.80;;;0.65;;
23290;SDS011;11814;44.686;10.842;2023-10-31T07:09:12;4.30;;;0.75;;
23290;SDS011;11814;44.686;10.842;2023-10-31T07:11:44;4.40;;;0.90;;
23290;SDS011;11814;44.686;10.842;2023-10-31T07:14:16;5.40;;;0.50;;
23290;SDS011;11814;44.686;10.842;2023-10-31T07:16:44;4.28;;;0.55;;
23290;SDS011;11814;44.686;10.842;2023-10-31T07:19:10;3.72;;;0.50;;
23290;SDS011;11814;44.686;10.842;2023-10-31T07:21:42;6.43;;;0.40;;
23290;SDS011;11814;44.686;10.842;2023-10-31T07:24:10;3.75;;;0.38;;
23290;SDS011;11814;44.686;10.842;2023-10-31T07:26:44;2.70;;;0.35;;
23290;SDS011;11814;44.686;10.842;2023-10-31T07:29:09;3.08;;;0.25;;
23290;SDS011;11814;44.686;10.842;2023-10-31T07:31:40;1.95;;;0.50;;
23290;SDS011;11814;44.686;10.842;2023-10-31T07:34:15;2.88;;;0.50;;
23290;SDS011;11814;44.686;10.842;2023-10-31T07:36:41;0.90;;;0.35;;
23290;SDS011;11814;44.686;10.842;2023-10-31T07:39:12;0.75;;;0.20;;
23290;SDS011;11814;44.686;10.842;2023-10-31T07:41:54;2.83;;;0.30;;
23290;SDS011;11814;44.686;10.842;2023-10-31T07:44:25;2.28;;;0.30;;
23290;SDS011;11814;44.686;10.842;2023-10-31T07:47:02;1.17;;;0.30;;
23290;SDS011;11814;44.686;10.842;2023-10-31T07:49:34;3.00;;;0.50;;
23290;SDS011;11814;44.686;10.842;2023-10-31T07:51:59;2.30;;;0.20;;
23290;SDS011;11814;44.686;10.842;2023-10-31T07:54:28;5.97;;;0.40;;
23290;SDS011;11814;44.686;10.842;2023-10-31T07:56:53;1.15;;;0.20;;
23290;SDS011;11814;44.686;10.842;2023-10-31T07:59:22;1.02;;;0.20;;
23290;SDS011;11814;44.686;10.842;2023-10-31T08:01:56;1.80;;;0.30;;
23290;SDS011;11814;44.686;10.842;2023-10-31T08:04:33;1.17;;;0.50;;
23290;SDS011;11814;44.686;10.842;2023-10-31T08:06:59;0.85;;;0.20;;
23290;SDS011;11814;44.686;10.842;2023-10-31T08:09:27;0.50;;;0.20;;
23290;SDS011;11814;44.686;10.842;2023-10-31T08:11:53;0.70;;;0.20;;
23290;SDS011;11814;44.686;10.842;2023-10-31T08:14:19;2.58;;;0.20;;
23290;SDS011;11814;44.686;10.842;2023-10-31T08:16:47;0.93;;;0.17;;
23290;SDS011;11814;44.686;10.842;2023-10-31T08:19:23;0.63;;;0.20;;
23290;SDS011;11814;44.686;10.842;2023-10-31T08:21:49;0.90;;;0.20;;
23290;SDS011;11814;44.686;10.842;2023-10-31T08:24:15;0.98;;;0.20;;
23290;SDS011;11814;44.686;10.842;2023-10-31T08:26:40;1.48;;;0.30;;
23290;SDS011;11814;44.686;10.842;2023-10-31T08:29:11;0.60;;;0.20;;
23290;SDS011;11814;44.686;10.842;2023-10-31T08:31:58;1.48;;;0.20;;
23290;SDS011;11814;44.686;10.842;2023-10-31T08:34:29;0.35;;;0.25;;
23290;SDS011;11814;44.686;10.842;2023-10-31T08:36:55;0.30;;;0.10;;
23290;SDS011;11814;44.686;10.842;2023-10-31T08:39:30;0.32;;;0.10;;
23290;SDS011;11814;44.686;10.842;2023-10-31T08:42:03;0.20;;;0.20;;
23290;SDS011;11814;44.686;10.842;2023-10-31T08:44:35;0.10;;;0.10;;
23290;SDS011;11814;44.686;10.842;2023-10-31T08:47:07;0.45;;;0.10;;
23290;SDS011;11814;44.686;10.842;2023-10-31T08:49:35;0.82;;;0.10;;
23290;SDS011;11814;44.686;10.842;2023-10-31T08:52:09;0.32;;;0.10;;
23290;SDS011;11814;44.686;10.842;2023-10-31T08:54:40;1.30;;;0.10;;
23290;SDS011;11814;44.686;10.842;2023-10-31T08:57:14;0.00;;;0.00;;
23290;SDS011;11814;44.686;10.842;2023-10-31T08:59:42;0.28;;;0.08;;
23290;SDS011;11814;44.686;10.842;2023-10-31T09:02:11;0.00;;;0.00;;
23290;SDS011;11814;44.686;10.842;2023-10-31T09:04:36;0.28;;;0.10;;
23290;SDS011;11814;44.686;10.842;2023-10-31T09:07:02;0.47;;;0.10;;
23290;SDS011;11814;44.686;10.842;2023-10-31T09:09:28;0.25;;;0.10;;
23290;SDS011;11814;44.686;10.842;2023-10-31T09:11:54;0.17;;;0.10;;
23290;SDS011;11814;44.686;10.842;2023-10-31T09:14:28;1.17;;;0.10;;
23290;SDS011;11814;44.686;10.842;2023-10-31T09:16:59;0.85;;;0.10;;
23290;SDS011;11814;44.686;10.842;2023-10-31T09:19:33;3.65;;;0.20;;
23290;SDS011;11814;44.686;10.842;2023-10-31T09:22:01;0.32;;;0.10;;
23290;SDS011;11814;44.686;10.842;2023-10-31T09:24:30;0.82;;;0.10;;
23290;SDS011;11814;44.686;10.842;2023-10-31T09:27:07;0.85;;;0.10;;
23290;SDS011;11814;44.686;10.842;2023-10-31T09:29:35;0.50;;;0.00;;
23290;SDS011;11814;44.686;10.842;2023-10-31T09:32:11;2.00;;;0.10;;
23290;SDS011;11814;44.686;10.842;2023-10-31T09:34:37;0.52;;;0.10;;
23290;SDS011;11814;44.686;10.842;2023-10-31T09:37:03;0.65;;;0.10;;
23290;SDS011;11814;44.686;10.842;2023-10-31T09:39:31;3.63;;;0.10;;
23290;SDS011;11814;44.686;10.842;2023-10-31T09:42:23;2.40;;;0.13;;
23290;SDS011;11814;44.686;10.842;2023-10-31T09:44:49;0.32;;;0.10;;
23290;SDS011;11814;44.686;10.842;2023-10-31T09:47:15;1.55;;;0.08;;
23290;SDS011;11814;44.686;10.842;2023-10-31T09:49:47;2.42;;;0.30;;
23290;SDS011;11814;44.686;10.842;2023-10-31T09:52:13;2.42;;;0.30;;
23290;SDS011;11814;44.686;10.842;2023-10-31T09:54:42;1.98;;;0.10;;
23290;SDS011;11814;44.686;10.842;2023-10-31T09:57:20;3.85;;;0.10;;
23290;SDS011;11814;44.686;10.842;2023-10-31T09:59:52;1.75;;;0.10;;
23290;SDS011;11814;44.686;10.842;2023-10-31T10:02:20;3.33;;;0.10;;
23290;SDS011;11814;44.686;10.842;2023-10-31T10:04:47;2.80;;;0.10;;
23290;SDS011;11814;44.686;10.842;2023-10-31T10:07:18;2.42;;;0.20;;
23290;SDS011;11814;44.686;10.842;2023-10-31T10:09:45;0.85;;;0.10;;
23290;SDS011;11814;44.686;10.842;2023-10-31T10:12:15;3.60;;;0.10;;
23290;SDS011;11814;44.686;10.842;2023-10-31T10:14:47;1.65;;;0.20;;
23290;SDS011;11814;44.686;10.842;2023-10-31T10:20:08;1.55;;;0.08;;
23290;SDS011;11814;44.686;10.842;2023-10-31T10:22:40;1.55;;;0.10;;
23290;SDS011;11814;44.686;10.842;2023-10-31T10:25:10;2.17;;;0.17;;
23290;SDS011;11814;44.686;10.842;2023-10-31T10:27:46;0.85;;;0.00;;
23290;SDS011;11814;44.686;10.842;2023-10-31T10:30:14;6.03;;;0.30;;
23290;SDS011;11814;44.686;10.842;2023-10-31T10:32:49;2.20;;;0.10;;
23290;SDS011;11814;44.686;10.842;2023-10-31T10:35:16;0.10;;;0.00;;
23290;SDS011;11814;44.686;10.842;2023-10-31T10:37:47;1.25;;;0.08;;
23290;SDS011;11814;44.686;10.842;2023-10-31T10:40:15;1.45;;;0.10;;
23290;SDS011;11814;44.686;10.842;2023-10-31T10:42:45;0.57;;;0.08;;
23290;SDS011;11814;44.686;10.842;2023-10-31T10:45:15;1.38;;;0.10;;
23290;SDS011;11814;44.686;10.842;2023-10-31T10:47:50;0.57;;;0.00;;
23290;SDS011;11814;44.686;10.842;2023-10-31T10:50:18;1.67;;;0.10;;
23290;SDS011;11814;44.686;10.842;2023-10-31T10:53:07;0.13;;;0.08;;
23290;SDS011;11814;44.686;10.842;2023-10-31T10:55:55;0.32;;;0.10;;
23290;SDS011;11814;44.686;10.842;2023-10-31T10:58:34;2.30;;;0.10;;
23290;SDS011;11814;44.686;10.842;2023-10-31T11:01:06;0.95;;;0.10;;
23290;SDS011;11814;44.686;10.842;2023-10-31T11:03:46;0.93;;;0.05;;
23290;SDS011;11814;44.686;10.842;2023-10-31T11:06:18;0.45;;;0.10;;
23290;SDS011;11814;44.686;10.842;2023-10-31T11:08:44;0.20;;;0.03;;
23290;SDS011;11814;44.686;10.842;2023-10-31T11:11:10;0.75;;;0.10;;
23290;SDS011;11814;44.686;10.842;2023-10-31T11:13:39;1.00;;;0.00;;
23290;SDS011;11814;44.686;10.842;2023-10-31T11:16:20;0.13;;;0.00;;
23290;SDS011;11814;44.686;10.842;2023-10-31T11:19:00;0.90;;;0.10;;
23290;SDS011;11814;44.686;10.842;2023-10-31T11:21:30;1.15;;;0.05;;
23290;SDS011;11814;44.686;10.842;2023-10-31T11:24:19;0.10;;;0.10;;
23290;SDS011;11814;44.686;10.842;2023-10-31T11:26:52;0.10;;;0.00;;
23290;SDS011;11814;44.686;10.842;2023-10-31T11:29:24;0.00;;;0.00;;
23290;SDS011;11814;44.686;10.842;2023-10-31T11:31:54;0.30;;;0.00;;
23290;SDS011;11814;44.686;10.842;2023-10-31T11:34:21;0.30;;;0.00;;
23290;SDS011;11814;44.686;10.842;2023-10-31T11:42:53;0.47;;;0.00;;
23290;SDS011;11814;44.686;10.842;2023-10-31T11:45:27;1.80;;;0.10;;
23290;SDS011;11814;44.686;10.842;2023-10-31T11:48:15;1.50;;;0.10;;
23290;SDS011;11814;44.686;10.842;2023-10-31T11:50:43;0.80;;;0.00;;
23290;SDS011;11814;44.686;10.842;2023-10-31T11:53:13;0.10;;;0.05;;
23290;SDS011;11814;44.686;10.842;2023-10-31T11:55:47;0.35;;;0.00;;
23290;SDS011;11814;44.686;10.842;2023-10-31T11:58:18;0.30;;;0.00;;
23290;SDS011;11814;44.686;10.842;2023-10-31T12:00:52;0.75;;;0.00;;
23290;SDS011;11814;44.686;10.842;2023-10-31T12:03:26;0.52;;;0.10;;
23290;SDS011;11814;44.686;10.842;2023-10-31T12:06:08;0.40;;;0.20;;
23290;SDS011;11814;44.686;10.842;2023-10-31T12:08:46;1.58;;;0.50;;
23290;SDS011;11814;44.686;10.842;2023-10-31T12:11:16;0.57;;;0.20;;
23290;SDS011;11814;44.686;10.842;2023-10-31T12:16:27;1.10;;;0.50;;
23290;SDS011;11814;44.686;10.842;2023-10-31T12:18:59;0.93;;;0.38;;
23290;SDS011;11814;44.686;10.842;2023-10-31T12:24:16;0.75;;;0.00;;
23290;SDS011;11814;44.686;10.842;2023-10-31T12:26:44;1.08;;;0.10;;
23290;SDS011;11814;44.686;10.842;2023-10-31T12:29:25;1.65;;;0.00;;
23290;SDS011;11814;44.686;10.842;2023-10-31T12:31:52;0.88;;;0.10;;
23290;SDS011;11814;44.686;10.842;2023-10-31T12:34:19;0.20;;;0.00;;
23290;SDS011;11814;44.686;10.842;2023-10-31T12:36:52;0.30;;;0.10;;
23290;SDS011;11814;44.686;10.842;2023-10-31T12:39:25;0.45;;;0.00;;
23290;SDS011;11814;44.686;10.842;2023-10-31T12:41:51;0.52;;;0.10;;
23290;SDS011;11814;44.686;10.842;2023-10-31T12:44:24;1.13;;;0.10;;
23290;SDS011;11814;44.686;10.842;2023-10-31T12:46:52;0.60;;;0.20;;
23290;SDS011;11814;44.686;10.842;2023-10-31T12:49:18;0.75;;;0.10;;
23290;SDS011;11814;44.686;10.842;2023-10-31T12:54:36;2.03;;;0.20;;
23290;SDS011;11814;44.686;10.842;2023-10-31T12:57:18;0.60;;;0.20;;
23290;SDS011;11814;44.686;10.842;2023-10-31T12:59:50;2.38;;;0.20;;
23290;SDS011;11814;44.686;10.842;2023-10-31T13:02:23;0.75;;;0.13;;
23290;SDS011;11814;44.686;10.842;2023-10-31T13:04:49;0.98;;;0.20;;
23290;SDS011;11814;44.686;10.842;2023-10-31T13:07:26;2.28;;;0.22;;
23290;SDS011;11814;44.686;10.842;2023-10-31T13:09:52;1.65;;;0.20;;
23290;SDS011;11814;44.686;10.842;2023-10-31T13:12:27;1.60;;;0.32;;
23290;SDS011;11814;44.686;10.842;2023-10-31T13:14:58;1.33;;;0.17;;
23290;SDS011;11814;44.686;10.842;2023-10-31T13:20:22;3.38;;;0.50;;
23290;SDS011;11814;44.686;10.842;2023-10-31T13:22:48;3.28;;;0.60;;
23290;SDS011;11814;44.686;10.842;2023-10-31T13:25:17;4.57;;;0.68;;
23290;SDS011;11814;44.686;10.842;2023-10-31T13:27:44;6.00;;;0.90;;
23290;SDS011;11814;44.686;10.842;2023-10-31T13:30:27;4.10;;;0.90;;
23290;SDS011;11814;44.686;10.842;2023-10-31T13:32:53;5.45;;;0.70;;
23290;SDS011;11814;44.686;10.842;2023-10-31T13:35:25;6.28;;;1.30;;
23290;SDS011;11814;44.686;10.842;2023-10-31T13:37:51;6.63;;;0.98;;
23290;SDS011;11814;44.686;10.842;2023-10-31T13:40:20;6.38;;;0.95;;
23290;SDS011;11814;44.686;10.842;2023-10-31T13:42:46;6.72;;;0.90;;
23290;SDS011;11814;44.686;10.842;2023-10-31T13:45:15;3.35;;;0.85;;
23290;SDS011;11814;44.686;10.842;2023-10-31T13:47:44;7.63;;;0.93;;
23290;SDS011;11814;44.686;10.842;2023-10-31T13:50:09;8.35;;;0.98;;
23290;SDS011;11814;44.686;10.842;2023-10-31T13:52:38;5.10;;;1.05;;
23290;SDS011;11814;44.686;10.842;2023-10-31T13:55:04;5.15;;;0.85;;
23290;SDS011;11814;44.686;10.842;2023-10-31T13:57:30;4.25;;;1.00;;
23290;SDS011;11814;44.686;10.842;2023-10-31T13:59:58;5.25;;;1.08;;
23290;SDS011;11814;44.686;10.842;2023-10-31T14:02:25;5.22;;;1.00;;
23290;SDS011;11814;44.686;10.842;2023-10-31T14:05:19;3.45;;;0.70;;
23290;SDS011;11814;44.686;10.842;2023-10-31T14:07:47;6.45;;;0.75;;
23290;SDS011;11814;44.686;10.842;2023-10-31T14:10:25;4.10;;;1.15;;
23290;SDS011;11814;44.686;10.842;2023-10-31T14:12:51;7.03;;;1.30;;
23290;SDS011;11814;44.686;10.842;2023-10-31T14:15:26;4.03;;;0.95;;
23290;SDS011;11814;44.686;10.842;2023-10-31T14:18:07;6.38;;;0.95;;
23290;SDS011;11814;44.686;10.842;2023-10-31T14:20:33;5.35;;;1.08;;
23290;SDS011;11814;44.686;10.842;2023-10-31T14:23:01;8.98;;;1.45;;
23290;SDS011;11814;44.686;10.842;2023-10-31T14:25:35;7.57;;;1.10;;
23290;SDS011;11814;44.686;10.842;2023-10-31T14:28:03;4.90;;;1.33;;
23290;SDS011;11814;44.686;10.842;2023-10-31T14:30:29;7.32;;;1.33;;
23290;SDS011;11814;44.686;10.842;2023-10-31T14:32:55;9.25;;;1.25;;
23290;SDS011;11814;44.686;10.842;2023-10-31T14:35:23;7.15;;;1.40;;
23290;SDS011;11814;44.686;10.842;2023-10-31T14:37:49;9.13;;;1.15;;
23290;SDS011;11814;44.686;10.842;2023-10-31T14:40:20;6.22;;;1.00;;
23290;SDS011;11814;44.686;10.842;2023-10-31T14:42:48;9.98;;;1.42;;
23290;SDS011;11814;44.686;10.842;2023-10-31T14:45:14;5.18;;;0.90;;
23290;SDS011;11814;44.686;10.842;2023-10-31T14:47:42;5.78;;;1.20;;
23290;SDS011;11814;44.686;10.842;2023-10-31T14:50:11;6.57;;;1.08;;
23290;SDS011;11814;44.686;10.842;2023-10-31T14:52:37;7.50;;;1.10;;
23290;SDS011;11814;44.686;10.842;2023-10-31T14:55:05;5.72;;;1.20;;
23290;SDS011;11814;44.686;10.842;2023-10-31T14:57:37;7.20;;;1.13;;
23290;SDS011;11814;44.686;10.842;2023-10-31T15:00:06;7.18;;;1.20;;
23290;SDS011;11814;44.686;10.842;2023-10-31T15:02:37;9.13;;;1.33;;
23290;SDS011;11814;44.686;10.842;2023-10-31T15:05:08;6.20;;;1.20;;
23290;SDS011;11814;44.686;10.842;2023-10-31T15:07:43;9.63;;;1.20;;
23290;SDS011;11814;44.686;10.842;2023-10-31T15:10:09;7.50;;;1.30;;
23290;SDS011;11814;44.686;10.842;2023-10-31T15:12:37;7.28;;;1.13;;
23290;SDS011;11814;44.686;10.842;2023-10-31T15:15:03;5.32;;;1.15;;